ポルト・ベーリョ空港の過去48時間の天気

ポルト・ベーリョ空港 (Porto Velho Aeroporto )

現在時刻: 12/14 13:00 -04 (12/14 17:00 UTC) 以下の時間は現地時間です。

過去48時間のMETAR気象情報
時間 風向 風速(m/s) 視程 気温(℃) 湿度(%) 気圧(hPa) 天気現象
14 12:00 2 10km以上 26 89 1012
14 11:00 2 10km以上 25 94 1013
14 10:00 2 10km以上 25 94 1013
14 09:00 2 10km以上 24 94 1013
14 08:00 1 10km以上 24 94 1012
14 07:00 1 4000m 23 94 1011 もや
14 06:00 1 4000m 23 94 1010 もや
14 05:20 1 10km以上 23 94 1009
14 05:00 北北西 1 10km以上 23 94 1009
14 04:00 1 10km以上 23 94 1008
14 03:00 1 10km以上 23 94 1008
14 02:00 2 10km以上 23 94 1008
14 01:00 2 10km以上 23 94 1009
14 00:00 2 10km以上 24 94 1010
13 23:00 2 10km以上 24 94 1010
13 22:00 1 10km以上 24 94 1010
13 21:00 1 10km以上 24 94 1009
13 20:00 西南西 1 10km以上 24 94 1009
13 19:30 南南西 1 10km以上 24 94 1008 周辺でしゅう雨
13 19:00 南南西 2 10km以上 24 94 1008 周辺でしゅう雨
13 18:00 西南西 1 10km以上 25 94 1007 周辺でしゅう雨
13 17:00 北西 1 8000m 25 94 1006 周辺でしゅう雨
13 16:00 北西 1 5000m 26 89 1006 周辺でしゅう雨 もや
13 15:00 1 4000m 25 89 1007 雨 もや
13 14:00 南南西 2 4000m 30 70 1007 周辺でしゅう雨 しゅう雨
13 13:00 北北西 2 10km以上 31 70 1008 周辺でしゅう雨
13 12:00 北東 2 10km以上 30 75 1009
13 11:00 北東 2 10km以上 29 79 1010
13 10:00 東北東 3 10km以上 27 89 1010
13 09:00 東北東 2 10km以上 26 94 1010
13 08:00 2 10km以上 24 94 1010
13 07:00 北北東 2 10km以上 24 94 1009
13 06:44 北東 1 10km以上 24 94 1009
13 06:15 東北東 1 10km以上 24 94 1009
13 06:00 東北東 1 10km以上 24 94 1009
13 05:00 東南東 2 10km以上 24 94 1008
13 04:00 2 10km以上 24 94 1008
13 03:00 2 10km以上 24 94 1009
13 02:00 2 10km以上 24 94 1009
13 01:00 1 10km以上 24 94 1010 弱い雨
13 00:00 東南東 2 10km以上 25 94 1010
12 23:00 東南東 3 10km以上 25 94 1010 弱い雨
12 22:00 3 10km以上 25 94 1009
12 21:00 2 10km以上 25 94 1008
12 20:00 2 10km以上 25 94 1008
12 19:00 南東 1 10km以上 26 89 1007
12 18:00 東北東 2 10km以上 26 94 1006
12 17:00 北東 2 8000m 26 94 1006
12 16:00 北東 2 7000m 27 94 1006 周辺でしゅう雨
12 15:00 北北西 1 7000m 26 94 1006 弱い霧雨 周辺でしゅう雨
12 14:00 南西 2 6000m 26 89 1007 弱いしゅう雨
SBPV 141600Z 36004KT 9999 BKN020 26/24 Q1012
SBPV 141500Z 01003KT 9999 OVC010 25/24 Q1013
SBPV 141400Z 01004KT 9999 OVC005 25/24 Q1013
SBPV 141300Z 01003KT 9999 OVC005 24/23 Q1013
SBPV 141200Z 35002KT 9999 OVC004 24/23 Q1012
SBPV 141100Z 36002KT 4000 BR BKN008 23/22 Q1011
SBPV 141000Z 35002KT 4000 BR BKN005 23/22 Q1010
SBPV 140920Z 35002KT 9999 BKN007 23/22 Q1009
SBPV 140900Z 33001KT 9999 FEW010 23/22 Q1009
SBPV 140800Z 35001KT 9999 FEW010 23/22 Q1008
SBPV 140700Z 18002KT 9999 FEW010 23/22 Q1008
SBPV 140600Z 18003KT 9999 FEW010 23/22 Q1008
SBPV 140500Z 19003KT 9999 FEW010 BKN100 23/22 Q1009
SBPV 140400Z 19003KT 9999 FEW010 BKN100 24/23 Q1010
SBPV 140300Z 19004KT 9999 FEW010 FEW030TCU BKN100 24/23 Q1010
SBPV 140200Z 19002KT 9999 FEW010 FEW030TCU BKN100 24/23 Q1010
SBPV 140100Z 19002KT 9999 FEW020 FEW030TCU BKN100 24/23 Q1009
SBPV 140000Z 24002KT 9999 SCT008 FEW030TCU BKN100 24/23 Q1009
SBPV 132330Z 21001KT 9999 VCSH SCT008 FEW030TCU BKN100 24/23 Q1008
SBPV 132300Z 21003KT 9999 VCSH BKN007 FEW030TCU BKN100 24/23 Q1008
SBPV 132200Z 25002KT 9999 VCSH BKN007 SCT020 FEW035TCU BKN100 25/24 Q1007
SBPV 132100Z 32002KT 8000 VCSH SCT020 FEW035TCU BKN100 25/24 Q1006
SBPV 132000Z 31002KT 5000 VCSH BR BKN020 FEW035TCU BKN100 26/24 Q1006 RERA
SBPV 131900Z 36002KT 4000 1000N RA BR FEW015 BKN020 FEW035TCU BKN100 25/23 Q1007
SBPV 131800Z 21004KT 4000 0800N SHRA VCSH BKN035 FEW040TCU BKN080 30/24 Q1007
SBPV 131700Z 34004KT 9999 VCSH BKN030 FEW035TCU SCT080 31/25 Q1008
SBPV 131600Z 04004KT 9999 BKN025 FEW030TCU SCT100 30/25 Q1009
SBPV 131500Z 04004KT 9999 BKN025 SCT100 29/25 Q1010
SBPV 131400Z 06005KT 9999 BKN020 27/25 Q1010
SBPV 131300Z 06004KT 9999 BKN010 26/25 Q1010
SBPV 131200Z 08004KT 9999 SCT008 SCT100 24/23 Q1010
SBPV 131100Z 02003KT 9999 SCT003 24/23 Q1009
SBPV 131044Z 04002KT 9999 SCT004 24/23 Q1009
SBPV 131015Z 06002KT 9999 BKN004 24/23 Q1009
SBPV 131000Z 07002KT 9999 SCT003 24/23 Q1009
SBPV 130900Z 11003KT 9999 SCT008 BKN100 24/23 Q1008
SBPV 130800Z 10003KT 9999 FEW008 BKN100 24/23 Q1008
SBPV 130700Z 10004KT 9999 FEW030 BKN100 24/23 Q1009
SBPV 130600Z 09004KT 9999 FEW030 BKN100 24/23 Q1009
SBPV 130500Z 10002KT 9999 -RA FEW030 BKN100 24/23 Q1010
SBPV 130400Z 12004KT 9999 FEW030 FEW035TCU BKN100 25/24 Q1010
SBPV 130300Z 12005KT 9999 -RA SCT030 FEW035TCU BKN100 25/24 Q1010
SBPV 130200Z 10005KT 9999 SCT030 FEW035TCU SCT100 25/24 Q1009
SBPV 130100Z 10004KT 9999 SCT030 FEW035TCU SCT100 25/24 Q1008
SBPV 130000Z 08003KT 9999 FEW030 FEW035TCU SCT100 25/24 Q1008
SBPV 122300Z 14002KT 9999 FEW030 FEW035TCU SCT100 26/24 Q1007
SBPV 122200Z 07004KT 9999 SCT030 FEW035TCU BKN080 26/25 Q1006
SBPV 122100Z 05004KT 8000 FEW008 SCT030 FEW035TCU 26/25 Q1006
SBPV 122000Z 04004KT 7000 VCSH SCT005 BKN025 FEW035TCU BKN080 27/26 Q1006
SBPV 121900Z 34002KT 7000 -DZ VCSH FEW015 SCT030 FEW035TCU BKN080 26/25 Q1006
SBPV 121800Z 22003KT 6000 -SHRA SCT015 BKN020 FEW025TCU BKN100 26/24 Q1007